Terminal Aerodrome Forecast
Issued by NWS Topeka, KS

Current Version | Previous Version | Text Only | Print | Product List | Glossary On
Versions: 1 2 3 4 5 6 7 8 9 10 11 12 13 14 15 16 17 18 19 20 21 22 23 24 25 26 27 28
000
FTUS43 KTOP 230721 AAA
TAFTOP
TAF AMD
KTOP 230721Z 2307/2406 VRB02KT 3SM BR FEW100
      TEMPO 2310/2314 1/2SM FG SCT015
     FM231700 VRB02KT P6SM SCT200
     FM232100 15006KT P6SM FEW200=

USA.gov is the U.S. government's official web portal to all federal, state and local government web resources and services.